TimeCDT,TemperatureF,Dew PointF,Humidity,Sea Level PressureIn,VisibilityMPH,Wind Direction,Wind SpeedMPH,Gust SpeedMPH,PrecipitationIn,Events,Conditions,WindDirDegrees,DateUTC
12:15 AM,55.4,53.6,94,30.02,0.2,Calm,Calm,-,N/A,,Overcast,0,2012-10-03 05:15:00
12:35 AM,55.4,53.6,94,30.03,0.5,Calm,Calm,-,N/A,,Overcast,0,2012-10-03 05:35:00
12:55 AM,53.6,51.8,94,30.03,0.8,Calm,Calm,-,N/A,,Overcast,0,2012-10-03 05:55:00
1:15 AM,53.6,51.8,94,30.03,0.2,Calm,Calm,-,N/A,,Overcast,0,2012-10-03 06:15:00
1:35 AM,53.6,51.8,94,30.03,0.2,Calm,Calm,-,N/A,,Overcast,0,2012-10-03 06:35:00
1:55 AM,53.6,51.8,94,30.04,0.5,Calm,Calm,-,N/A,,Overcast,0,2012-10-03 06:55:00
2:15 AM,53.6,51.8,94,30.04,0.2,Calm,Calm,-,N/A,,Overcast,0,2012-10-03 07:15:00
2:35 AM,53.6,51.8,94,30.05,0.2,Calm,Calm,-,N/A,,Overcast,0,2012-10-03 07:35:00
2:55 AM,53.6,51.8,94,30.04,0.5,Calm,Calm,-,N/A,,Overcast,0,2012-10-03 07:55:00
3:15 AM,53.6,51.8,94,30.04,0.8,Calm,Calm,-,N/A,,Overcast,0,2012-10-03 08:15:00
3:35 AM,53.6,51.8,94,30.05,0.5,Calm,Calm,-,N/A,,Overcast,0,2012-10-03 08:35:00
3:55 AM,53.6,51.8,94,30.05,0.5,Calm,Calm,-,N/A,,Overcast,0,2012-10-03 08:55:00
4:15 AM,53.6,51.8,94,30.06,0.5,Calm,Calm,-,N/A,,Overcast,0,2012-10-03 09:15:00
4:35 AM,53.6,51.8,94,30.06,0.5,Calm,Calm,-,N/A,,Overcast,0,2012-10-03 09:35:00
4:55 AM,53.6,51.8,94,30.07,0.2,Calm,Calm,-,N/A,,Overcast,0,2012-10-03 09:55:00
5:15 AM,53.6,51.8,94,30.08,0.2,Calm,Calm,-,N/A,,Overcast,0,2012-10-03 10:15:00
5:35 AM,53.6,51.8,94,30.09,0.2,Calm,Calm,-,N/A,,Overcast,0,2012-10-03 10:35:00
5:55 AM,53.6,53.6,100,30.09,0.2,Calm,Calm,-,N/A,,Overcast,0,2012-10-03 10:55:00
6:15 AM,53.6,51.8,94,30.10,0.2,Calm,Calm,-,N/A,,Overcast,0,2012-10-03 11:15:00
6:35 AM,53.6,51.8,94,30.10,0.2,Calm,Calm,-,N/A,,Overcast,0,2012-10-03 11:35:00
6:55 AM,53.6,51.8,94,30.12,0.2,Calm,Calm,-,N/A,,Overcast,0,2012-10-03 11:55:00
7:15 AM,53.6,51.8,94,30.12,0.2,Calm,Calm,-,N/A,,Overcast,0,2012-10-03 12:15:00
7:35 AM,53.6,51.8,94,30.13,0.2,Calm,Calm,-,N/A,,Overcast,0,2012-10-03 12:35:00
7:55 AM,53.6,51.8,94,30.13,0.2,Calm,Calm,-,N/A,,Overcast,0,2012-10-03 12:55:00
8:15 AM,55.4,53.6,94,30.15,0.2,Calm,Calm,-,N/A,,Overcast,0,2012-10-03 13:15:00
8:35 AM,55.4,53.6,94,30.15,0.2,Calm,Calm,-,N/A,,Overcast,0,2012-10-03 13:35:00
8:55 AM,55.4,53.6,94,30.16,0.2,Calm,Calm,-,N/A,,Overcast,0,2012-10-03 13:55:00
9:15 AM,55.4,53.6,94,30.17,0.5,Calm,Calm,-,N/A,,Overcast,0,2012-10-03 14:15:00
9:35 AM,55.4,53.6,94,30.17,0.2,Calm,Calm,-,N/A,,Overcast,0,2012-10-03 14:35:00
10:15 AM,57.2,55.4,94,30.17,3.0,Calm,Calm,-,N/A,,Overcast,0,2012-10-03 15:15:00
10:35 AM,59.0,57.2,94,30.17,9.0,Calm,Calm,-,N/A,,Overcast,0,2012-10-03 15:35:00
10:55 AM,59.0,57.2,94,30.16,10.0,NNE,3.5,-,N/A,,Overcast,20,2012-10-03 15:55:00
11:15 AM,62.6,57.2,82,30.17,10.0,Calm,Calm,-,N/A,,Partly Cloudy,0,2012-10-03 16:15:00
11:35 AM,64.4,59.0,83,30.16,10.0,Calm,Calm,-,N/A,,Clear,0,2012-10-03 16:35:00
11:55 AM,66.2,59.0,78,30.15,10.0,Calm,Calm,-,N/A,,Clear,0,2012-10-03 16:55:00
12:15 PM,69.8,57.2,64,30.15,10.0,Calm,Calm,-,N/A,,Clear,0,2012-10-03 17:15:00
12:35 PM,69.8,55.4,60,30.15,10.0,ESE,3.5,-,N/A,,Clear,110,2012-10-03 17:35:00
12:55 PM,69.8,55.4,60,30.14,10.0,SE,3.5,-,N/A,,Clear,140,2012-10-03 17:55:00
1:15 PM,71.6,55.4,57,30.13,10.0,Calm,Calm,-,N/A,,Clear,0,2012-10-03 18:15:00
1:35 PM,71.6,55.4,57,30.14,10.0,ESE,5.8,-,N/A,,Clear,110,2012-10-03 18:35:00
1:55 PM,71.6,55.4,57,30.13,10.0,East,6.9,-,N/A,,Clear,100,2012-10-03 18:55:00
2:15 PM,71.6,55.4,57,30.13,10.0,SSW,3.5,-,N/A,,Clear,200,2012-10-03 19:15:00
2:35 PM,71.6,57.2,60,30.13,10.0,SE,3.5,-,N/A,,Clear,140,2012-10-03 19:35:00
2:55 PM,71.6,55.4,57,30.13,10.0,SSE,3.5,-,N/A,,Partly Cloudy,150,2012-10-03 19:55:00
3:15 PM,71.6,55.4,57,30.12,10.0,SSE,4.6,-,N/A,,Clear,150,2012-10-03 20:15:00
3:35 PM,71.6,55.4,57,30.12,10.0,SSE,3.5,-,N/A,,Clear,160,2012-10-03 20:35:00
3:55 PM,71.6,55.4,57,30.13,10.0,SSE,3.5,-,N/A,,Clear,160,2012-10-03 20:55:00
4:15 PM,71.6,55.4,57,30.13,10.0,SE,6.9,-,N/A,,Clear,140,2012-10-03 21:15:00
4:35 PM,69.8,55.4,60,30.14,10.0,SSE,3.5,-,N/A,,Clear,160,2012-10-03 21:35:00
4:55 PM,69.8,55.4,60,30.13,10.0,Calm,Calm,-,N/A,,Clear,0,2012-10-03 21:55:00
5:15 PM,69.8,55.4,60,30.14,10.0,SSE,3.5,-,N/A,,Clear,160,2012-10-03 22:15:00
5:35 PM,69.8,57.2,64,30.14,10.0,Calm,Calm,-,N/A,,Clear,0,2012-10-03 22:35:00
5:55 PM,66.2,57.2,73,30.14,10.0,Calm,Calm,-,N/A,,Clear,0,2012-10-03 22:55:00
6:15 PM,64.4,57.2,77,30.15,10.0,Calm,Calm,-,N/A,,Clear,0,2012-10-03 23:15:00
6:35 PM,62.6,57.2,82,30.15,10.0,Calm,Calm,-,N/A,,Clear,0,2012-10-03 23:35:00
6:55 PM,62.6,57.2,82,30.15,10.0,Calm,Calm,-,N/A,,Clear,0,2012-10-03 23:55:00
7:15 PM,62.6,57.2,82,30.16,10.0,Calm,Calm,-,N/A,,Clear,0,2012-10-04 00:15:00
7:35 PM,60.8,57.2,88,30.16,10.0,Calm,Calm,-,N/A,,Clear,0,2012-10-04 00:35:00
7:55 PM,60.8,55.4,82,30.17,10.0,Calm,Calm,-,N/A,,Clear,0,2012-10-04 00:55:00
8:15 PM,59.0,55.4,88,30.17,10.0,Calm,Calm,-,N/A,,Clear,0,2012-10-04 01:15:00
8:35 PM,59.0,55.4,88,30.18,10.0,Calm,Calm,-,N/A,,Clear,0,2012-10-04 01:35:00
8:55 PM,57.2,55.4,94,30.18,10.0,Calm,Calm,-,N/A,,Clear,0,2012-10-04 01:55:00
9:15 PM,57.2,55.4,94,30.19,10.0,Calm,Calm,-,N/A,,Clear,0,2012-10-04 02:15:00
9:35 PM,57.2,55.4,94,30.19,10.0,Calm,Calm,-,N/A,,Clear,0,2012-10-04 02:35:00
9:55 PM,57.2,55.4,94,30.20,10.0,Calm,Calm,-,N/A,,Clear,0,2012-10-04 02:55:00
10:15 PM,57.2,53.6,88,30.20,10.0,Calm,Calm,-,N/A,,Clear,0,2012-10-04 03:15:00
10:35 PM,57.2,55.4,94,30.21,10.0,Calm,Calm,-,N/A,,Clear,0,2012-10-04 03:35:00
10:55 PM,57.2,55.4,94,30.21,10.0,Calm,Calm,-,N/A,,Clear,0,2012-10-04 03:55:00
11:15 PM,55.4,53.6,94,30.21,10.0,Calm,Calm,-,N/A,,Clear,0,2012-10-04 04:15:00
11:35 PM,55.4,53.6,94,30.22,10.0,Calm,Calm,-,N/A,,Clear,0,2012-10-04 04:35:00
11:55 PM,55.4,51.8,88,30.21,10.0,Calm,Calm,-,N/A,,Clear,0,2012-10-04 04:55:00